Yuuzan — 3EIG3 — position and weather

sailwx.info

Track history (hours):
 
Tides and Currents Weather Stations Pressure Air Temp Water Temp Dewpoint Dewpoint Depression Visibility Wind Speed Wind Dir Waves Ship Positions

Yuuzan

Last reported at 2018-Feb-14 16:37 UTC. Time now 2018-Feb-22 18:40 UTC.
Position N 01°26' E 103°55'.
Warning: this ship's position is 8 days out of date.

Length 117 m; draft 5.2 m.

Type: Cargo ship. MMSI: 372153000.

Date/timePositionNaut miles runAvg speedWind from/ knotsBaromVisibWave heightAir tempDewpointWater temp
2018-Feb-14 16:37N 01°26' E 103°55'0 0.0
2018-Feb-14 16:25N 01°26' E 103°55'5 4.4
2018-Feb-14 15:13N 01°24' E 103°60'4 9.0
2018-Feb-14 14:44N 01°21' E 104°03'3 4.7
2018-Feb-14 14:02N 01°20' E 104°06'0 5.4
2018-Feb-14 13:57N 01°20' E 104°06'0 0.0
2018-Feb-14 10:27N 01°20' E 104°06'0 0.0
2018-Feb-14 09:36N 01°20' E 104°06'0 0.0
2018-Feb-14 09:03N 01°20' E 104°06'0 0.2
2018-Feb-14 08:39N 01°20' E 104°06'0 0.0
2018-Feb-13 21:03N 01°20' E 104°06'0 0.1
2018-Feb-13 20:33N 01°20' E 104°06'0 0.0
2018-Feb-13 17:44N 01°20' E 104°06'0 0.1
2018-Feb-13 17:28N 01°20' E 104°06'7 5.7
2018-Feb-13 16:16N 01°15' E 104°02'410.7
2018-Feb-13 15:55N 01°14' E 103°58'511.0
2018-Feb-13 15:29N 01°12' E 103°54'5 9.5
2018-Feb-13 14:59N 01°11' E 103°50'5 9.8
2018-Feb-13 14:30N 01°08' E 103°46'510.1
2018-Feb-13 14:00N 01°04' E 103°42'510.0
2018-Feb-13 13:30N 01°03' E 103°37'610.6
2018-Feb-13 12:56N 01°07' E 103°33'510.9
2018-Feb-13 12:27N 01°09' E 103°28'  
2018-Feb-10 19:05N 01°36' E 103°01'114.1
2018-Feb-10 18:59N 01°35' E 103°02'2515.0
2018-Feb-10 17:19N 01°18' E 103°20'615.6
2018-Feb-10 16:55N 01°14' E 103°26'715.1
2018-Feb-10 16:29N 01°12' E 103°32'814.8
2018-Feb-10 15:58N 01°11' E 103°40'612.3
2018-Feb-10 15:30N 01°09' E 103°45'612.6
2018-Feb-10 15:01N 01°11' E 103°50'612.9
2018-Feb-10 14:31N 01°14' E 103°56'10 9.3
2018-Feb-10 13:24N 01°20' E 104°05'12 9.6
2018-Feb-10 12:08N 01°26' E 103°55'0 1.2
2018-Feb-10 11:51N 01°26' E 103°54'0 0.0
2018-Feb-10 07:27N 01°26' E 103°54'  
Track history (hours):
 
Tides and Currents Weather Stations Pressure Air Temp Water Temp Dewpoint Dewpoint Depression Visibility Wind Speed Wind Dir Waves Ship Positions

Yuuzan

Last reported at 2018-Feb-14 16:37 UTC. Time now 2018-Feb-22 18:40 UTC.
Position N 01°26' E 103°55'.
Warning: this ship's position is 8 days out of date.

Length 117 m; draft 5.2 m.

Type: Cargo ship. MMSI: 372153000.

Date/timePositionNaut miles runAvg speedWind from/ knotsBaromVisibWave heightAir tempDewpointWater temp
2018-Feb-14 16:37N 01°26' E 103°55'0 0.0
2018-Feb-14 16:25N 01°26' E 103°55'5 4.4
2018-Feb-14 15:13N 01°24' E 103°60'4 9.0
2018-Feb-14 14:44N 01°21' E 104°03'3 4.7
2018-Feb-14 14:02N 01°20' E 104°06'0 5.4
2018-Feb-14 13:57N 01°20' E 104°06'0 0.0
2018-Feb-14 10:27N 01°20' E 104°06'0 0.0
2018-Feb-14 09:36N 01°20' E 104°06'0 0.0
2018-Feb-14 09:03N 01°20' E 104°06'0 0.2
2018-Feb-14 08:39N 01°20' E 104°06'0 0.0
2018-Feb-13 21:03N 01°20' E 104°06'0 0.1
2018-Feb-13 20:33N 01°20' E 104°06'0 0.0
2018-Feb-13 17:44N 01°20' E 104°06'0 0.1
2018-Feb-13 17:28N 01°20' E 104°06'7 5.7
2018-Feb-13 16:16N 01°15' E 104°02'410.7
2018-Feb-13 15:55N 01°14' E 103°58'511.0
2018-Feb-13 15:29N 01°12' E 103°54'5 9.5
2018-Feb-13 14:59N 01°11' E 103°50'5 9.8
2018-Feb-13 14:30N 01°08' E 103°46'510.1
2018-Feb-13 14:00N 01°04' E 103°42'510.0
2018-Feb-13 13:30N 01°03' E 103°37'610.6
2018-Feb-13 12:56N 01°07' E 103°33'510.9
2018-Feb-13 12:27N 01°09' E 103°28'  
2018-Feb-10 19:05N 01°36' E 103°01'114.1
2018-Feb-10 18:59N 01°35' E 103°02'2515.0
2018-Feb-10 17:19N 01°18' E 103°20'615.6
2018-Feb-10 16:55N 01°14' E 103°26'715.1
2018-Feb-10 16:29N 01°12' E 103°32'814.8
2018-Feb-10 15:58N 01°11' E 103°40'612.3
2018-Feb-10 15:30N 01°09' E 103°45'612.6
2018-Feb-10 15:01N 01°11' E 103°50'612.9
2018-Feb-10 14:31N 01°14' E 103°56'10 9.3
2018-Feb-10 13:24N 01°20' E 104°05'12 9.6
2018-Feb-10 12:08N 01°26' E 103°55'0 1.2
2018-Feb-10 11:51N 01°26' E 103°54'0 0.0
2018-Feb-10 07:27N 01°26' E 103°54'  

Dump ship's entire track history